Time;durP1;ratioP1;P1;durP2;ratioP2;P2;SDS_P1;SDS_P2;PMS_P1;PMS_P2;Temp;Humidity;BMP_temperature;BMP_pressure;BME280_temperature;BME280_humidity;BME280_pressure;Samples;Min_cycle;Max_cycle;Signal;HPM_P1;HPM_P2
2022/11/20 00:00:52;;;;;;;50.38;22.48;;;-3.20;99.90;;;;;;4980159;28;20026;-66
2022/11/20 00:03:18;;;;;;;41.78;20.42;;;-3.30;99.90;;;;;;4979760;28;20031;-65
2022/11/20 00:05:44;;;;;;;52.42;23.60;;;-3.30;99.90;;;;;;4978528;28;20027;-68
2022/11/20 00:08:10;;;;;;;52.95;24.25;;;-3.40;99.90;;;;;;4979835;28;20093;-65
2022/11/20 00:10:37;;;;;;;53.92;26.90;;;-3.40;99.90;;;;;;4978665;28;21583;-65
2022/11/20 00:13:03;;;;;;;54.95;26.00;;;-3.50;99.90;;;;;;4974337;28;20038;-65
2022/11/20 00:15:29;;;;;;;47.17;24.00;;;-3.50;99.90;;;;;;4981999;28;20089;-66
2022/11/20 00:17:55;;;;;;;54.13;23.60;;;-3.60;99.90;;;;;;4979005;28;20386;-65
2022/11/20 00:20:20;;;;;;;56.95;24.73;;;-3.50;99.90;;;;;;4978174;28;20027;-67
2022/11/20 00:22:47;;;;;;;66.13;30.73;;;-3.60;99.90;;;;;;4977651;28;20041;-65
2022/11/20 00:25:13;;;;;;;56.05;26.50;;;-3.60;99.90;;;;;;4981111;28;20049;-65
2022/11/20 00:27:39;;;;;;;48.33;23.33;;;-3.60;99.90;;;;;;4978727;28;20062;-69
2022/11/20 00:30:05;;;;;;;48.75;23.63;;;-3.70;99.90;;;;;;4974479;28;20394;-66
2022/11/20 00:32:31;;;;;;;47.50;24.05;;;-3.80;99.90;;;;;;4977474;28;20486;-66
2022/11/20 00:34:57;;;;;;;46.53;23.17;;;-3.80;99.90;;;;;;4978989;28;20070;-68
2022/11/20 00:37:23;;;;;;;44.30;22.08;;;-3.80;99.90;;;;;;4979226;28;20370;-65
2022/11/20 00:39:48;;;;;;;64.03;27.88;;;-3.90;99.90;;;;;;4983071;28;20057;-65
2022/11/20 00:42:14;;;;;;;56.33;25.63;;;-3.90;99.90;;;;;;4978118;28;20094;-65
2022/11/20 00:44:39;;;;;;;53.20;24.05;;;-3.90;99.90;;;;;;4976593;28;20430;-65
2022/11/20 00:47:05;;;;;;;49.75;23.45;;;-3.80;99.90;;;;;;4981318;28;20559;-69
2022/11/20 00:49:31;;;;;;;47.42;22.33;;;-3.70;99.90;;;;;;4979784;28;20042;-67
2022/11/20 00:51:56;;;;;;;51.67;21.77;;;-3.70;99.90;;;;;;4978320;28;20027;-65
2022/11/20 00:54:22;;;;;;;51.13;23.45;;;-3.70;99.90;;;;;;4978383;28;20023;-65
2022/11/20 00:56:48;;;;;;;48.92;20.83;;;-3.70;99.90;;;;;;4975702;28;20088;-65
2022/11/20 00:59:13;;;;;;;46.17;20.48;;;-3.80;99.90;;;;;;4975407;28;20397;-66
2022/11/20 01:01:39;;;;;;;62.45;27.83;;;-3.80;99.90;;;;;;4978599;28;20094;-69
2022/11/20 01:04:05;;;;;;;47.40;22.83;;;-3.80;99.90;;;;;;4977656;28;20026;-66
2022/11/20 01:06:34;;;;;;;47.53;22.17;;;-3.80;99.90;;;;;;4975619;28;20026;-65
2022/11/20 01:09:02;;;;;;;45.92;20.98;;;-3.90;99.90;;;;;;4974287;28;20097;-68
2022/11/20 01:11:31;;;;;;;42.80;22.08;;;-3.90;99.90;;;;;;4976917;28;21162;-68
2022/11/20 01:13:58;;;;;;;54.65;21.63;;;-4.00;99.90;;;;;;4975176;28;20094;-65
2022/11/20 01:16:33;;;;;;;50.08;23.02;;;-4.00;99.90;;;;;;4977694;28;20096;-65
2022/11/20 01:19:01;;;;;;;49.42;22.95;;;-4.00;99.90;;;;;;4973223;28;20378;-64
2022/11/20 01:21:36;;;;;;;56.85;27.55;;;-4.00;99.90;;;;;;4979569;28;20073;-64
2022/11/20 01:24:03;;;;;;;74.00;29.38;;;-3.90;99.90;;;;;;4973661;28;20415;-65
2022/11/20 01:26:34;;;;;;;103.05;44.63;;;-3.90;99.90;;;;;;4981260;28;20518;-64
2022/11/20 01:29:00;;;;;;;;;;;-3.80;99.90;;;;;;4975099;28;20085;-68
2022/11/20 01:31:34;;;;;;;72.05;25.50;;;-3.70;99.90;;;;;;4984037;28;19917;-67
2022/11/20 01:34:10;;;;;;;71.38;25.35;;;-3.70;99.90;;;;;;4979220;28;20023;-65
2022/11/20 01:36:37;;;;;;;78.32;25.50;;;-3.60;99.90;;;;;;4978987;28;20050;-64
2022/11/20 01:39:10;;;;;;;129.93;28.70;;;-3.60;99.90;;;;;;4980713;28;20524;-64
2022/11/20 01:44:41;;;;;;;132.90;26.95;;;-3.50;99.90;;;;;;4981741;28;20600;-64
2022/11/20 01:47:09;;;;;;;103.97;29.20;;;-3.50;99.90;;;;;;4973936;28;20039;-64
2022/11/20 01:49:40;;;;;;;82.78;28.38;;;-3.60;99.90;;;;;;4977363;28;20038;-65
2022/11/20 01:52:12;;;;;;;76.82;28.25;;;-3.50;99.90;;;;;;4977064;28;20600;-64
2022/11/20 01:54:46;;;;;;;76.88;27.00;;;-3.40;99.90;;;;;;4977472;28;20026;-69
2022/11/20 01:57:13;;;;;;;77.95;26.73;;;-3.40;99.90;;;;;;4989687;28;20569;-64
2022/11/20 01:59:44;;;;;;;120.53;27.42;;;-3.40;99.90;;;;;;4974560;28;20494;-65
2022/11/20 02:02:09;;;;;;;;;;;-3.30;99.90;;;;;;4976811;28;20058;-64
2022/11/20 02:04:35;;;;;;;86.15;28.55;;;-3.30;99.90;;;;;;4980370;28;19921;-65
2022/11/20 02:07:04;;;;;;;123.45;30.38;;;-3.30;99.90;;;;;;4976821;28;20022;-64
2022/11/20 02:09:30;;;;;;;134.10;31.23;;;-3.30;99.90;;;;;;4977190;28;20475;-65
2022/11/20 02:11:56;;;;;;;112.95;28.65;;;-3.20;99.90;;;;;;4979403;28;20040;-64
2022/11/20 02:14:23;;;;;;;114.35;30.25;;;-3.20;99.90;;;;;;4981382;28;20035;-66
2022/11/20 02:16:50;;;;;;;95.78;27.77;;;-3.20;99.90;;;;;;4978894;28;20038;-66
2022/11/20 02:19:29;;;;;;;107.18;28.55;;;-3.10;99.90;;;;;;4977759;28;20183;-67
2022/11/20 02:22:21;;;;;;;155.85;29.67;;;-3.10;99.90;;;;;;4976176;28;20121;-70
2022/11/20 02:24:48;;;;;;;78.00;26.80;;;-3.10;99.90;;;;;;4982369;28;20042;-66
2022/11/20 02:27:15;;;;;;;96.63;26.15;;;-3.10;99.90;;;;;;4986292;28;20256;-67
2022/11/20 02:29:56;;;;;;;74.82;26.27;;;-3.10;99.90;;;;;;4978075;28;20059;-66
2022/11/20 02:32:29;;;;;;;76.47;24.80;;;-3.10;99.90;;;;;;4977460;28;20054;-67
2022/11/20 02:34:55;;;;;;;241.88;32.90;;;-3.00;99.90;;;;;;4972389;28;20118;-66
2022/11/20 02:37:21;;;;;;;126.72;26.42;;;-3.00;99.90;;;;;;4973084;28;20141;-66
2022/11/20 02:39:49;;;;;;;116.18;25.13;;;-3.10;99.90;;;;;;4977146;28;20401;-66
2022/11/20 02:42:15;;;;;;;64.90;25.58;;;-3.10;99.90;;;;;;4977220;28;20022;-64
2022/11/20 02:44:41;;;;;;;58.22;23.70;;;-3.10;99.90;;;;;;4978222;28;20030;-66
2022/11/20 02:47:07;;;;;;;58.88;23.67;;;-3.10;99.90;;;;;;4979381;28;20023;-67
2022/11/20 02:49:33;;;;;;;55.50;23.00;;;-3.20;99.90;;;;;;4976283;28;20030;-64
2022/11/20 02:51:58;;;;;;;49.05;21.52;;;-3.20;99.90;;;;;;4978308;28;20089;-64
2022/11/20 02:54:24;;;;;;;48.00;21.13;;;-3.20;99.90;;;;;;4975301;28;20445;-65
2022/11/20 02:56:50;;;;;;;58.67;22.77;;;-3.10;99.90;;;;;;4980562;28;20061;-66
2022/11/20 02:59:15;;;;;;;69.75;24.73;;;-3.10;99.90;;;;;;4982311;28;20059;-66
2022/11/20 03:01:41;;;;;;;57.50;23.48;;;-3.10;99.90;;;;;;4978054;28;20596;-64
2022/11/20 03:04:07;;;;;;;62.03;22.73;;;-3.10;99.90;;;;;;4975532;28;20069;-66
2022/11/20 03:06:33;;;;;;;54.78;22.40;;;-3.00;99.90;;;;;;4978079;28;20080;-67
2022/11/20 03:08:58;;;;;;;52.55;22.65;;;-3.00;99.90;;;;;;4980522;28;20541;-68
2022/11/20 03:11:24;;;;;;;54.45;22.92;;;-3.00;99.90;;;;;;4979628;28;20034;-67
2022/11/20 03:13:50;;;;;;;49.92;20.67;;;-3.00;99.90;;;;;;4974372;28;20097;-64
2022/11/20 03:16:18;;;;;;;46.10;20.58;;;-3.00;99.90;;;;;;4975876;28;20026;-64
2022/11/20 03:18:45;;;;;;;51.97;21.48;;;-3.00;99.90;;;;;;4966147;28;20279;-64
2022/11/20 03:21:12;;;;;;;44.90;20.60;;;-3.00;99.90;;;;;;4980597;28;20038;-66
2022/11/20 03:23:38;;;;;;;50.03;20.85;;;-3.00;99.90;;;;;;4977848;28;20113;-64
2022/11/20 03:26:11;;;;;;;44.20;19.05;;;-2.90;99.90;;;;;;4978237;28;20040;-65
2022/11/20 03:28:36;;;;;;;50.58;21.15;;;-2.90;99.90;;;;;;4976930;28;20409;-67
2022/11/20 03:31:10;;;;;;;43.78;19.35;;;-2.90;99.90;;;;;;4981188;28;20023;-65
2022/11/20 03:33:36;;;;;;;50.38;21.17;;;-2.90;99.90;;;;;;4978130;28;20045;-64
2022/11/20 03:36:05;;;;;;;54.30;23.80;;;-2.90;99.90;;;;;;4980246;28;20030;-66
2022/11/20 03:38:31;;;;;;;45.70;20.60;;;-2.90;99.90;;;;;;4980602;28;20517;-64
2022/11/20 03:41:05;;;;;;;46.40;20.10;;;-2.80;99.90;;;;;;4983862;28;20044;-67
2022/11/20 03:43:31;;;;;;;48.22;21.05;;;-2.70;99.90;;;;;;4978525;28;20031;-64
2022/11/20 03:45:56;;;;;;;46.00;19.30;;;-2.70;99.90;;;;;;4979334;28;20031;-64
2022/11/20 03:48:22;;;;;;;45.55;20.50;;;-2.60;99.90;;;;;;4978302;28;20053;-65
2022/11/20 03:50:48;;;;;;;47.28;22.00;;;-2.50;99.90;;;;;;4984042;28;20023;-64
2022/11/20 03:53:14;;;;;;;46.67;21.67;;;-2.50;99.90;;;;;;4975348;28;20487;-65
2022/11/20 03:55:40;;;;;;;50.63;21.83;;;-2.40;99.90;;;;;;4978445;28;20031;-64
2022/11/20 03:58:05;;;;;;;48.80;20.90;;;-2.40;99.90;;;;;;4981018;28;20022;-64
2022/11/20 04:00:31;;;;;;;43.45;19.23;;;-2.40;99.90;;;;;;4981150;28;20046;-66
2022/11/20 04:03:02;;;;;;;51.28;19.85;;;-2.40;99.90;;;;;;4985003;28;20058;-67
2022/11/20 04:05:27;;;;;;;47.88;20.92;;;-2.50;99.90;;;;;;4977816;28;20141;-67
2022/11/20 04:07:53;;;;;;;51.97;22.48;;;-2.50;99.90;;;;;;4992049;28;20046;-66
2022/11/20 04:10:19;;;;;;;52.05;23.15;;;-2.50;99.90;;;;;;4979462;28;20198;-64
2022/11/20 04:12:45;;;;;;;50.65;21.50;;;-2.50;99.90;;;;;;4977626;28;20089;-64
2022/11/20 04:15:11;;;;;;;51.78;20.13;;;-2.50;99.90;;;;;;4976310;28;20491;-64
2022/11/20 04:17:37;;;;;;;46.13;20.83;;;-2.50;99.90;;;;;;4977371;28;20042;-64
2022/11/20 04:20:03;;;;;;;44.17;21.15;;;-2.50;99.90;;;;;;4983573;28;20038;-64
2022/11/20 04:22:29;;;;;;;47.05;20.58;;;-2.50;99.90;;;;;;4978925;28;20046;-64
2022/11/20 04:24:54;;;;;;;45.25;21.17;;;-2.50;99.90;;;;;;4976636;28;20026;-64
2022/11/20 04:27:20;;;;;;;44.78;19.45;;;-2.40;99.90;;;;;;4979347;28;20034;-65
2022/11/20 04:29:46;;;;;;;54.10;22.92;;;-2.40;99.90;;;;;;4983838;28;20406;-64
2022/11/20 04:32:12;;;;;;;51.30;21.20;;;-2.40;99.90;;;;;;4982532;28;20038;-66
2022/11/20 04:34:37;;;;;;;49.60;20.30;;;-2.40;99.90;;;;;;4980902;28;20136;-64
2022/11/20 04:37:03;;;;;;;48.58;21.90;;;-2.30;99.90;;;;;;4981286;28;20058;-64
2022/11/20 04:39:29;;;;;;;47.20;21.65;;;-2.30;99.90;;;;;;4976181;28;20070;-65
2022/11/20 04:44:38;;;;;;;56.08;23.23;;;-2.10;99.90;;;;;;4978773;28;20052;-66
2022/11/20 04:47:04;;;;;;;51.35;22.52;;;-2.10;99.90;;;;;;4977004;28;20039;-65
2022/11/20 04:49:31;;;;;;;57.33;23.20;;;-2.10;99.90;;;;;;4979999;28;20490;-67
2022/11/20 04:51:57;;;;;;;51.17;21.98;;;-2.00;99.90;;;;;;4979556;28;20034;-64
2022/11/20 04:54:23;;;;;;;49.85;22.38;;;-1.90;99.90;;;;;;4974023;28;20023;-64
2022/11/20 04:56:49;;;;;;;48.08;21.52;;;-1.90;99.90;;;;;;4984368;28;20030;-66
2022/11/20 04:59:14;;;;;;;45.20;20.80;;;-1.90;99.90;;;;;;4977909;28;20114;-66
2022/11/20 05:01:40;;;;;;;43.25;21.55;;;-1.90;99.90;;;;;;4977356;28;20122;-67
2022/11/20 05:04:06;;;;;;;46.10;20.50;;;-1.80;99.90;;;;;;4976667;28;20034;-64
2022/11/20 05:06:32;;;;;;;45.15;21.25;;;-1.80;99.90;;;;;;4984811;28;20094;-65
2022/11/20 05:08:58;;;;;;;43.90;19.77;;;-1.80;99.90;;;;;;4981523;28;20050;-64
2022/11/20 05:11:24;;;;;;;44.90;19.85;;;-1.90;99.90;;;;;;4981361;28;20046;-64
2022/11/20 05:13:51;;;;;;;41.47;19.13;;;-1.90;99.90;;;;;;4976711;28;20035;-65
2022/11/20 05:16:22;;;;;;;44.50;20.00;;;-1.90;99.90;;;;;;4978324;28;20396;-64
2022/11/20 05:18:48;;;;;;;39.72;19.77;;;-1.90;99.90;;;;;;4980119;28;20038;-64
2022/11/20 05:21:15;;;;;;;41.10;18.13;;;-1.90;99.90;;;;;;4975333;28;20054;-64
2022/11/20 05:23:41;;;;;;;45.78;20.67;;;-1.90;99.90;;;;;;4976293;28;20342;-64
2022/11/20 05:26:12;;;;;;;43.97;20.30;;;-1.80;99.90;;;;;;4979186;28;20359;-66
2022/11/20 05:28:37;;;;;;;42.47;19.67;;;-1.90;99.90;;;;;;4977490;28;20439;-65
2022/11/20 05:31:29;;;;;;;38.63;18.73;;;-1.90;99.90;;;;;;4980652;28;20030;-64
2022/11/20 05:33:56;;;;;;;37.67;18.67;;;-1.90;99.90;;;;;;4979534;28;20100;-64
2022/11/20 05:36:22;;;;;;;35.55;17.80;;;-1.90;99.90;;;;;;4979423;28;20870;-64
2022/11/20 05:38:47;;;;;;;39.17;18.35;;;-1.90;99.90;;;;;;4978807;28;20026;-66
2022/11/20 05:41:16;;;;;;;42.58;18.95;;;-1.90;99.90;;;;;;4978192;28;20506;-64
2022/11/20 05:43:43;;;;;;;37.28;19.02;;;-1.90;99.90;;;;;;4974507;28;20027;-66
2022/11/20 05:46:10;;;;;;;45.22;18.95;;;-1.80;99.90;;;;;;4975855;28;20398;-64
2022/11/20 05:48:37;;;;;;;41.88;19.58;;;-1.90;99.90;;;;;;4976798;28;20560;-64
2022/11/20 05:51:05;;;;;;;44.58;20.85;;;-1.90;99.90;;;;;;4980984;28;20027;-65
2022/11/20 05:53:33;;;;;;;50.55;22.25;;;-1.80;99.90;;;;;;4980074;28;20028;-64
2022/11/20 05:56:00;;;;;;;57.10;24.45;;;-1.80;99.90;;;;;;4976263;28;20027;-64
2022/11/20 05:58:26;;;;;;;48.60;22.35;;;-1.80;99.90;;;;;;4976049;28;20031;-64
2022/11/20 06:00:52;;;;;;;44.97;20.30;;;-1.80;99.90;;;;;;4977297;28;20050;-66
2022/11/20 06:03:18;;;;;;;43.33;19.52;;;-1.70;99.90;;;;;;4973686;28;20066;-65
2022/11/20 06:05:43;;;;;;;42.35;19.95;;;-1.70;99.90;;;;;;4974538;28;20430;-64
2022/11/20 06:08:09;;;;;;;45.20;21.08;;;-1.70;99.90;;;;;;4978788;28;20039;-64
2022/11/20 06:10:34;;;;;;;44.42;20.08;;;-1.70;99.90;;;;;;4975119;28;20038;-65
2022/11/20 06:13:00;;;;;;;46.03;24.30;;;-1.70;99.90;;;;;;4977638;28;20113;-67
2022/11/20 06:15:26;;;;;;;52.15;23.20;;;-1.70;99.90;;;;;;4977979;28;20066;-64
2022/11/20 06:17:55;;;;;;;41.17;20.23;;;-1.70;99.90;;;;;;4974318;28;20030;-64
2022/11/20 06:20:21;;;;;;;41.78;19.42;;;-1.70;99.90;;;;;;4972722;28;20035;-64
2022/11/20 06:22:47;;;;;;;40.33;19.40;;;-1.70;99.90;;;;;;4978157;28;20093;-64
2022/11/20 06:25:13;;;;;;;37.83;19.77;;;-1.60;99.90;;;;;;4975877;28;20047;-64
2022/11/20 06:27:39;;;;;;;47.33;20.45;;;-1.60;99.90;;;;;;4976875;28;20042;-64
2022/11/20 06:30:05;;;;;;;42.95;21.55;;;-1.50;99.90;;;;;;4979973;28;20029;-67
2022/11/20 06:32:31;;;;;;;41.08;17.63;;;-1.50;99.90;;;;;;4976105;28;20023;-66
2022/11/20 06:34:56;;;;;;;45.80;19.60;;;-1.50;99.90;;;;;;4978235;28;20052;-65
2022/11/20 06:37:22;;;;;;;47.15;18.05;;;-1.50;99.90;;;;;;4980077;28;20031;-64
2022/11/20 06:39:47;;;;;;;37.13;18.05;;;-1.50;99.90;;;;;;4982115;28;20022;-64
2022/11/20 06:42:13;;;;;;;36.47;17.25;;;-1.50;99.90;;;;;;4980692;28;20034;-64
2022/11/20 06:44:39;;;;;;;40.40;19.98;;;-1.50;99.90;;;;;;4978405;28;20321;-68
2022/11/20 06:47:04;;;;;;;41.78;19.45;;;-1.50;99.90;;;;;;4985779;28;20037;-66
2022/11/20 06:49:30;;;;;;;40.42;17.00;;;-1.50;99.90;;;;;;4982140;28;20030;-64
2022/11/20 06:51:56;;;;;;;42.40;19.13;;;-1.40;99.90;;;;;;4982759;28;20018;-65
2022/11/20 06:54:21;;;;;;;32.20;16.88;;;-1.40;99.90;;;;;;4983225;28;20062;-65
2022/11/20 06:56:47;;;;;;;42.72;17.92;;;-1.40;99.90;;;;;;4982644;28;20027;-65
2022/11/20 06:59:13;;;;;;;33.60;17.25;;;-1.40;99.90;;;;;;4979127;28;20030;-66
2022/11/20 07:01:39;;;;;;;34.47;16.35;;;-1.40;99.90;;;;;;4979109;28;20490;-67
2022/11/20 07:04:04;;;;;;;32.00;15.98;;;-1.30;99.90;;;;;;4982820;28;20429;-68
2022/11/20 07:06:30;;;;;;;34.05;16.90;;;-1.30;99.90;;;;;;4976005;28;20434;-65
2022/11/20 07:08:56;;;;;;;40.70;17.85;;;-1.20;99.90;;;;;;4978754;28;20034;-69
2022/11/20 07:11:21;;;;;;;41.80;20.55;;;-1.20;99.90;;;;;;4978007;28;20035;-67
2022/11/20 07:13:47;;;;;;;61.95;26.88;;;-1.10;99.90;;;;;;4982699;28;20041;-64
2022/11/20 07:16:13;;;;;;;51.05;22.23;;;-1.10;99.90;;;;;;4981901;28;20054;-65
2022/11/20 07:18:38;;;;;;;43.72;19.13;;;-1.00;99.90;;;;;;4972396;28;20033;-65
2022/11/20 07:21:06;;;;;;;42.10;20.35;;;-1.00;99.90;;;;;;4980388;28;20054;-66
2022/11/20 07:23:32;;;;;;;40.05;20.92;;;-1.00;99.90;;;;;;4976693;28;20038;-65
2022/11/20 07:25:58;;;;;;;41.40;18.58;;;-1.00;99.90;;;;;;4977689;28;20096;-67
2022/11/20 07:28:23;;;;;;;34.35;18.13;;;-0.90;99.90;;;;;;4980459;28;20042;-65
2022/11/20 07:30:53;;;;;;;35.88;18.63;;;-0.90;99.90;;;;;;4979007;28;20050;-64
2022/11/20 07:33:19;;;;;;;35.42;17.85;;;-0.80;99.90;;;;;;4977477;28;20038;-65
2022/11/20 07:35:45;;;;;;;31.08;17.00;;;-0.70;99.90;;;;;;4983197;28;20050;-65
2022/11/20 07:38:10;;;;;;;34.55;18.38;;;-0.70;99.90;;;;;;4980977;28;20031;-65
2022/11/20 07:40:36;;;;;;;32.63;18.30;;;-0.70;99.90;;;;;;4980509;28;20034;-68
2022/11/20 07:43:02;;;;;;;33.08;18.42;;;-0.60;99.90;;;;;;4978457;28;20073;-66
2022/11/20 07:45:27;;;;;;;39.05;18.38;;;-0.60;99.90;;;;;;4977975;28;20042;-65
2022/11/20 07:47:53;;;;;;;34.20;17.83;;;-0.60;99.90;;;;;;4978867;28;20046;-65
2022/11/20 07:50:19;;;;;;;32.85;17.05;;;-0.50;99.90;;;;;;4977662;28;20109;-65
2022/11/20 07:52:45;;;;;;;32.85;16.02;;;-0.50;99.90;;;;;;4979869;28;20441;-65
2022/11/20 07:55:11;;;;;;;29.88;17.10;;;-0.50;99.90;;;;;;4976086;28;20026;-66
2022/11/20 07:57:37;;;;;;;30.63;16.13;;;-0.40;99.90;;;;;;4977645;28;20178;-69
2022/11/20 08:00:05;;;;;;;30.27;16.20;;;-0.40;99.90;;;;;;4974580;28;20031;-65
2022/11/20 08:02:30;;;;;;;31.48;17.05;;;-0.40;99.90;;;;;;4979182;28;20125;-68
2022/11/20 08:04:56;;;;;;;36.90;18.25;;;-0.40;99.90;;;;;;4978876;28;20180;-65
2022/11/20 08:07:21;;;;;;;32.20;17.73;;;-0.40;99.90;;;;;;4976525;28;20486;-67
2022/11/20 08:09:47;;;;;;;33.15;17.27;;;-0.40;99.90;;;;;;4979240;28;20030;-65
2022/11/20 08:15:04;;;;;;;31.53;16.50;;;-0.30;99.90;;;;;;4978011;28;20047;-65
2022/11/20 08:17:30;;;;;;;32.90;17.80;;;-0.30;99.90;;;;;;4979383;28;20273;-65
2022/11/20 08:19:55;;;;;;;32.88;17.75;;;-0.20;99.90;;;;;;4996434;28;20030;-65
2022/11/20 08:22:21;;;;;;;34.67;17.75;;;-0.20;99.90;;;;;;4980534;28;20045;-66
2022/11/20 08:24:47;;;;;;;38.10;18.48;;;-0.10;99.90;;;;;;4978420;28;20030;-64
2022/11/20 08:27:13;;;;;;;34.78;18.00;;;0.00;99.90;;;;;;4974587;28;20031;-67
2022/11/20 08:29:39;;;;;;;40.72;19.60;;;0.10;99.90;;;;;;4977696;28;20037;-66
2022/11/20 08:32:04;;;;;;;35.78;17.15;;;0.10;99.90;;;;;;4979828;28;20037;-65
2022/11/20 08:34:30;;;;;;;26.67;16.60;;;0.20;99.90;;;;;;4976901;28;20464;-66
2022/11/20 08:36:56;;;;;;;34.40;17.77;;;0.30;99.90;;;;;;4981057;28;20084;-65
2022/11/20 08:39:22;;;;;;;34.13;17.88;;;0.40;99.90;;;;;;4974679;28;20080;-68
2022/11/20 08:41:47;;;;;;;30.48;17.50;;;0.50;99.90;;;;;;4980738;28;20097;-69
2022/11/20 08:44:13;;;;;;;34.70;17.52;;;0.50;99.90;;;;;;4974452;28;20030;-65
2022/11/20 08:46:41;;;;;;;29.00;16.58;;;0.50;99.90;;;;;;4977943;28;20490;-65
2022/11/20 08:49:11;;;;;;;31.55;16.60;;;0.60;99.90;;;;;;4981870;28;20030;-67
2022/11/20 08:51:38;;;;;;;33.73;17.97;;;0.60;99.90;;;;;;4969309;28;20041;-65
2022/11/20 08:54:05;;;;;;;34.88;18.55;;;0.60;99.90;;;;;;4980112;28;20311;-67
2022/11/20 08:56:31;;;;;;;39.05;20.50;;;0.60;99.90;;;;;;4983081;28;20026;-68
2022/11/20 08:58:56;;;;;;;32.13;18.13;;;0.70;99.90;;;;;;4986525;28;20022;-65
2022/11/20 09:01:23;;;;;;;43.30;22.33;;;0.60;99.90;;;;;;4975644;28;20611;-65
2022/11/20 09:03:49;;;;;;;54.38;24.33;;;0.60;99.90;;;;;;4980775;28;20049;-65
2022/11/20 09:06:15;;;;;;;44.72;21.48;;;0.60;99.90;;;;;;4973315;28;20113;-65
2022/11/20 09:08:41;;;;;;;29.65;17.63;;;0.70;99.90;;;;;;4976791;28;20081;-65
2022/11/20 09:11:07;;;;;;;32.45;18.88;;;0.70;99.90;;;;;;4974394;28;20038;-66
2022/11/20 09:13:34;;;;;;;29.42;17.55;;;0.80;99.90;;;;;;4975044;28;20045;-65
2022/11/20 09:16:03;;;;;;;39.05;20.40;;;0.80;99.90;;;;;;4978498;28;20102;-68
2022/11/20 09:18:31;;;;;;;33.28;18.77;;;0.90;99.90;;;;;;4968847;28;20046;-66
2022/11/20 09:20:58;;;;;;;31.77;18.15;;;0.90;99.90;;;;;;4979313;28;20026;-65
2022/11/20 09:23:25;;;;;;;36.42;20.05;;;1.00;99.90;;;;;;4978873;28;20509;-67
2022/11/20 09:25:52;;;;;;;33.85;18.65;;;0.90;99.90;;;;;;4980061;28;20130;-65
2022/11/20 09:28:18;;;;;;;30.80;16.65;;;0.80;99.90;;;;;;4983973;28;20085;-65
2022/11/20 09:30:44;;;;;;;31.73;17.95;;;0.70;99.90;;;;;;4981195;28;20018;-65
2022/11/20 09:33:10;;;;;;;35.58;19.23;;;0.70;99.90;;;;;;4977664;28;20360;-65
2022/11/20 09:35:35;;;;;;;37.28;20.38;;;0.70;99.90;;;;;;4977274;28;20322;-66
2022/11/20 09:38:07;;;;;;;40.50;19.85;;;0.80;99.90;;;;;;4977932;28;20069;-67
2022/11/20 09:40:35;;;;;;;37.60;21.38;;;0.90;99.90;;;;;;4975559;28;20058;-68
2022/11/20 09:43:01;;;;;;;35.22;19.92;;;1.00;99.90;;;;;;4975691;28;20110;-65
2022/11/20 09:45:45;;;;;;;37.67;20.67;;;1.00;99.90;;;;;;4978508;28;20129;-65
2022/11/20 09:48:41;;;;;;;34.83;20.73;;;1.10;99.90;;;;;;4976176;28;20035;-65
2022/11/20 09:51:27;;;;;;;37.80;20.40;;;1.20;99.90;;;;;;4977217;28;20054;-66
2022/11/20 09:53:56;;;;;;;38.58;20.20;;;1.30;99.90;;;;;;4982667;28;20023;-68
2022/11/20 09:56:22;;;;;;;42.92;23.60;;;1.40;99.90;;;;;;4974626;28;20027;-65
2022/11/20 09:58:51;;;;;;;43.22;23.85;;;1.40;99.90;;;;;;4976768;28;20372;-66
2022/11/20 10:01:19;;;;;;;46.80;27.17;;;1.40;99.90;;;;;;4978198;28;20019;-65
2022/11/20 10:03:57;;;;;;;42.08;23.52;;;1.40;99.90;;;;;;4977713;28;20475;-64
2022/11/20 10:06:56;;;;;;;41.50;22.50;;;1.50;99.90;;;;;;4981661;28;20022;-69
2022/11/20 10:09:30;;;;;;;43.58;23.02;;;1.50;99.90;;;;;;4977075;28;20049;-65
2022/11/20 10:12:29;;;;;;;46.13;24.30;;;1.40;99.90;;;;;;4975569;28;20498;-66
2022/11/20 10:15:01;;;;;;;46.50;24.77;;;1.40;99.90;;;;;;4977136;28;20261;-64
2022/11/20 10:17:55;;;;;;;41.22;22.35;;;1.30;99.90;;;;;;4982352;28;20584;-67
2022/11/20 10:20:26;;;;;;;39.95;21.98;;;1.30;99.90;;;;;;4979179;28;20038;-64
2022/11/20 10:23:00;;;;;;;42.03;21.65;;;1.30;99.90;;;;;;4977584;28;20035;-66
2022/11/20 10:25:49;;;;;;;43.40;22.42;;;1.30;99.90;;;;;;4979448;28;20994;-65
2022/11/20 10:28:30;;;;;;;34.45;20.90;;;1.20;99.90;;;;;;4977748;28;20037;-65
2022/11/20 10:31:14;;;;;;;40.67;21.52;;;1.20;99.90;;;;;;4975902;28;20038;-67
2022/11/20 10:33:44;;;;;;;36.55;19.83;;;1.20;99.90;;;;;;4978888;28;20397;-68
2022/11/20 10:36:16;;;;;;;40.22;20.80;;;1.20;99.90;;;;;;4980708;28;20363;-64
2022/11/20 10:38:54;;;;;;;36.55;19.67;;;1.20;99.90;;;;;;4980247;28;20797;-64
2022/11/20 10:41:27;;;;;;;42.05;21.42;;;1.20;99.90;;;;;;4975192;28;20326;-64
2022/11/20 10:44:10;;;;;;;38.63;21.30;;;1.20;99.90;;;;;;4980844;28;20036;-65
2022/11/20 10:46:44;;;;;;;35.83;19.10;;;1.20;99.90;;;;;;4978078;28;20045;-66
2022/11/20 10:49:17;;;;;;;34.10;18.20;;;1.20;99.90;;;;;;4978989;28;20038;-69
2022/11/20 10:52:05;;;;;;;37.45;20.30;;;1.30;99.90;;;;;;4979102;28;20023;-64
2022/11/20 10:54:33;;;;;;;39.33;21.52;;;1.40;99.90;;;;;;4977285;28;20031;-68
2022/11/20 10:57:12;;;;;;;42.33;22.58;;;1.40;99.90;;;;;;4980455;28;20073;-68
2022/11/20 11:00:04;;;;;;;60.20;27.92;;;1.30;99.90;;;;;;4978152;28;20174;-64
2022/11/20 11:02:34;;;;;;;38.47;21.25;;;1.30;99.90;;;;;;4980925;28;20045;-65
2022/11/20 11:05:19;;;;;;;42.97;22.35;;;1.20;99.90;;;;;;4977712;28;20034;-66
2022/11/20 11:07:48;;;;;;;45.03;23.80;;;1.30;99.90;;;;;;4976251;28;20046;-65
2022/11/20 11:10:22;;;;;;;41.60;22.88;;;1.40;99.90;;;;;;4977292;28;20027;-65
2022/11/20 11:12:48;;;;;;;43.17;22.55;;;1.50;99.90;;;;;;4943148;28;1118776;-64
2022/11/20 11:15:30;;;;;;;49.35;24.55;;;1.50;99.90;;;;;;4979284;28;20478;-64
2022/11/20 11:17:56;;;;;;;45.55;23.48;;;1.50;99.90;;;;;;4980360;28;20034;-64
2022/11/20 11:20:24;;;;;;;48.90;24.40;;;1.50;99.90;;;;;;4979886;28;20031;-65
2022/11/20 11:22:52;;;;;;;46.85;24.35;;;1.50;99.90;;;;;;4981364;28;20038;-65
2022/11/20 11:25:36;;;;;;;44.83;25.60;;;1.60;99.90;;;;;;4978047;28;20031;-65
2022/11/20 11:28:01;;;;;;;50.40;25.20;;;1.60;99.90;;;;;;4981837;28;20034;-66
2022/11/20 11:30:30;;;;;;;48.28;25.67;;;1.70;99.90;;;;;;4978034;28;20043;-68
2022/11/20 11:33:35;;;;;;;47.15;23.50;;;1.70;99.90;;;;;;4981005;28;20038;-66
2022/11/20 11:36:18;;;;;;;42.33;22.27;;;1.80;99.90;;;;;;4979042;28;20057;-66
2022/11/20 11:38:44;;;;;;;41.03;21.00;;;1.80;99.90;;;;;;4983628;28;20053;-67
2022/11/20 11:41:17;;;;;;;41.83;22.70;;;1.90;99.90;;;;;;4985658;28;20390;-67
2022/11/20 11:46:43;;;;;;;37.53;21.80;;;2.20;99.90;;;;;;4977280;28;20030;-65
2022/11/20 11:49:09;;;;;;;45.30;25.17;;;2.30;99.90;;;;;;4977722;28;20030;-65
2022/11/20 11:52:01;;;;;;;39.85;22.02;;;2.30;99.90;;;;;;4977194;28;20027;-64
2022/11/20 11:54:45;;;;;;;40.55;21.50;;;2.30;99.90;;;;;;4980949;28;20046;-64
2022/11/20 11:57:37;;;;;;;40.95;23.02;;;2.40;99.90;;;;;;4997733;28;20077;-64
2022/11/20 12:00:15;;;;;;;47.33;25.20;;;2.40;99.90;;;;;;4999116;28;20184;-69
2022/11/20 12:02:49;;;;;;;42.45;23.35;;;2.50;99.90;;;;;;4999283;28;20034;-62
2022/11/20 12:05:15;;;;;;;39.67;21.75;;;2.40;99.90;;;;;;4995233;28;20069;-65
2022/11/20 12:07:55;;;;;;;36.00;21.30;;;2.40;99.90;;;;;;4999999;28;20449;-65
2022/11/20 12:10:26;;;;;;;42.28;24.17;;;2.40;99.90;;;;;;4998388;28;20453;-65
2022/11/20 12:13:02;;;;;;;46.92;24.55;;;2.40;99.90;;;;;;5001959;28;20033;-68
2022/11/20 12:15:33;;;;;;;51.28;27.60;;;2.40;99.90;;;;;;4998921;28;20038;-66
2022/11/20 12:17:59;;;;;;;53.55;27.80;;;2.40;99.90;;;;;;4998380;28;20464;-65
2022/11/20 12:20:45;;;;;;;44.05;23.10;;;2.30;99.90;;;;;;4999561;28;20042;-65
2022/11/20 12:23:33;;;;;;;40.67;21.45;;;2.20;99.90;;;;;;4998945;28;20028;-65
2022/11/20 12:26:06;;;;;;;36.25;19.85;;;2.10;99.90;;;;;;4995596;28;20501;-65
2022/11/20 12:29:08;;;;;;;36.15;20.45;;;2.10;99.90;;;;;;4996378;28;20084;-66
2022/11/20 12:32:14;;;;;;;44.20;20.05;;;2.10;99.90;;;;;;4997393;28;20121;-66
2022/11/20 12:34:44;;;;;;;39.30;20.67;;;2.10;99.90;;;;;;4998253;28;20065;-65
2022/11/20 12:37:49;;;;;;;33.92;20.13;;;2.10;99.90;;;;;;4998639;28;20014;-64
2022/11/20 12:40:39;;;;;;;46.97;23.83;;;2.10;99.90;;;;;;4979859;28;20709;-67
2022/11/20 12:46:36;;;;;;;41.00;22.10;;;2.10;99.90;;;;;;5000635;28;20037;-65
2022/11/20 12:49:29;;;;;;;41.85;23.40;;;2.20;99.90;;;;;;5000662;28;20061;-66
2022/11/20 12:52:13;;;;;;;45.75;23.80;;;2.20;99.90;;;;;;4999045;28;20600;-65
2022/11/20 12:54:45;;;;;;;40.72;21.70;;;2.20;99.90;;;;;;4998052;28;20035;-67
2022/11/20 12:57:28;;;;;;;;;;;2.30;99.90;;;;;;4994286;28;20030;-64